Time;durP1;ratioP1;P1;durP2;ratioP2;P2;SDS_P1;SDS_P2;PMS_P1;PMS_P2;Temp;Humidity;BMP_temperature;BMP_pressure;BME280_temperature;BME280_humidity;BME280_pressure;Samples;Min_cycle;Max_cycle;Signal;HPM_P1;HPM_P2
2022/07/11 00:01:11;;;;;;;;;;;;;;;;;;5075608;28;19908;-41
2022/07/11 00:03:36;;;;;;;;;;;;;;;;;;5075391;28;19909;-41
2022/07/11 00:06:02;;;;;;;;;;;;;;;;;;5075397;28;19916;-42
2022/07/11 00:08:27;;;;;;;;;;;;;;;;;;5075267;28;19913;-41
2022/07/11 00:10:53;;;;;;;;;;;;;;;;;;5075346;28;20694;-42
2022/07/11 00:13:18;;;;;;;;;;;;;;;;;;5075225;28;19999;-41
2022/07/11 00:15:43;;;;;;;;;;;;;;;;;;5075467;28;20363;-41
2022/07/11 00:18:08;;;;;;;;;;;;;;;;;;5075199;28;19973;-41
2022/07/11 00:20:33;;;;;;;;;;;;;;;;;;5075264;28;19962;-41
2022/07/11 00:22:58;;;;;;;;;;;;;;;;;;5075197;28;19938;-41
2022/07/11 00:25:23;;;;;;;;;;;;;;;;;;5057301;28;19916;-41
2022/07/11 00:27:48;;;;;;;;;;;;;;;;;;5056995;28;19917;-41
2022/07/11 00:30:16;;;;;;;;;;;;;;;;;;5075081;28;20351;-41
2022/07/11 00:32:41;;;;;;;;;;;;;;;;;;5075041;28;19913;-41
2022/07/11 00:35:06;;;;;;;;;;;;;;;;;;5075049;28;19990;-41
2022/07/11 00:37:31;;;;;;;;;;;;;;;;;;5074920;28;19912;-42
2022/07/11 00:39:59;;;;;;;;;;;;;;;;;;5074821;28;19916;-41
2022/07/11 00:42:24;;;;;;;;;;;;;;;;;;5074859;28;19916;-41
2022/07/11 00:44:49;;;;;;;;;;;;;;;;;;5074808;28;19912;-42
2022/07/11 00:47:14;;;;;;;;;;;;;;;;;;5074695;28;19915;-41
2022/07/11 00:49:39;;;;;;;;;;;;;;;;;;5074786;28;20007;-42
2022/07/11 00:52:04;;;;;;;;;;;;;;;;;;5074933;28;19970;-42
2022/07/11 00:54:29;;;;;;;;;;;;;;;;;;5074711;28;19959;-41
2022/07/11 00:56:54;;;;;;;;;;;;;;;;;;5074641;28;19977;-42
2022/07/11 00:59:19;;;;;;;;;;;;;;;;;;5073828;28;19916;-41
2022/07/11 01:01:45;;;;;;;;;;;;;;;;;;5074737;28;19915;-41
2022/07/11 01:04:10;;;;;;;;;;;;;;;;;;5074932;28;19908;-41
2022/07/11 01:06:35;;;;;;;;;;;;;;;;;;5074659;28;19915;-41
2022/07/11 01:09:00;;;;;;;;;;;;;;;;;;5074823;28;19920;-41
2022/07/11 01:11:25;;;;;;;;;;;;;;;;;;5074436;28;20275;-41
2022/07/11 01:13:50;;;;;;;;;;;;;;;;;;5074666;28;19908;-41
2022/07/11 01:16:16;;;;;;;;;;;;;;;;;;5074542;28;19908;-42
2022/07/11 01:18:41;;;;;;;;;;;;;;;;;;5074792;28;19975;-40
2022/07/11 01:21:06;;;;;;;;;;;;;;;;;;5074481;28;20118;-41
2022/07/11 01:23:31;;;;;;;;;;;;;;;;;;5075172;28;19957;-41
2022/07/11 01:25:57;;;;;;;;;;;;;;;;;;5074688;28;19967;-41
2022/07/11 01:28:22;;;;;;;;;;;;;;;;;;5074512;28;19912;-41
2022/07/11 01:30:47;;;;;;;;;;;;;;;;;;5074663;28;19948;-41
2022/07/11 01:33:12;;;;;;;;;;;;;;;;;;5074276;28;19951;-41
2022/07/11 01:35:37;;;;;;;;;;;;;;;;;;5074293;28;19913;-41
2022/07/11 01:38:02;;;;;;;;;;;;;;;;;;5074323;28;19909;-41
2022/07/11 01:40:27;;;;;;;;;;;;;;;;;;5074273;28;19940;-41
2022/07/11 01:42:52;;;;;;;;;;;;;;;;;;5074497;28;19909;-41
2022/07/11 01:45:18;;;;;;;;;;;;;;;;;;5074398;28;19908;-41
2022/07/11 01:47:43;;;;;;;;;;;;;;;;;;5074009;28;19912;-41
2022/07/11 01:50:08;;;;;;;;;;;;;;;;;;5074563;28;19931;-41
2022/07/11 01:52:33;;;;;;;;;;;;;;;;;;5074135;28;19909;-41
2022/07/11 01:54:58;;;;;;;;;;;;;;;;;;5074212;28;20259;-42
2022/07/11 01:57:23;;;;;;;;;;;;;;;;;;5074053;28;19931;-41
2022/07/11 01:59:48;;;;;;;;;;;;;;;;;;5074235;28;19913;-41
2022/07/11 02:02:13;;;;;;;;;;;;;;;;;;5074218;28;19917;-41
2022/07/11 02:04:38;;;;;;;;;;;;;;;;;;5073983;28;19931;-41
2022/07/11 02:07:03;;;;;;;;;;;;;;;;;;5055927;28;19908;-41
2022/07/11 02:09:29;;;;;;;;;;;;;;;;;;5074124;28;19913;-41
2022/07/11 02:11:54;;;;;;;;;;;;;;;;;;5076855;28;19962;-40
2022/07/11 02:14:19;;;;;;;;;;;;;;;;;;5077771;28;20328;-41
2022/07/11 02:16:44;;;;;;;;;;;;;;;;;;5077250;28;20314;-41
2022/07/11 02:19:10;;;;;;;;;;;;;;;;;;5077755;28;19916;-41
2022/07/11 02:21:36;;;;;;;;;;;;;;;;;;5077340;28;19915;-41
2022/07/11 02:24:01;;;;;;;;;;;;;;;;;;5077415;28;19999;-41
2022/07/11 02:26:26;;;;;;;;;;;;;;;;;;5077359;28;19909;-41
2022/07/11 02:28:51;;;;;;;;;;;;;;;;;;5077279;28;19919;-41
2022/07/11 02:31:16;;;;;;;;;;;;;;;;;;5078632;28;19915;-41
2022/07/11 02:33:41;;;;;;;;;;;;;;;;;;5077206;28;19915;-42
2022/07/11 02:36:07;;;;;;;;;;;;;;;;;;5077123;28;19909;-41
2022/07/11 02:38:32;;;;;;;;;;;;;;;;;;5077143;28;19912;-42
2022/07/11 02:40:58;;;;;;;;;;;;;;;;;;5077108;28;19909;-41
2022/07/11 02:43:24;;;;;;;;;;;;;;;;;;5077320;28;19908;-41
2022/07/11 02:45:49;;;;;;;;;;;;;;;;;;5076978;28;19905;-41
2022/07/11 02:48:14;;;;;;;;;;;;;;;;;;5076795;28;19958;-41
2022/07/11 02:50:39;;;;;;;;;;;;;;;;;;5077125;28;20366;-41
2022/07/11 02:53:04;;;;;;;;;;;;;;;;;;5076875;28;19908;-41
2022/07/11 02:55:30;;;;;;;;;;;;;;;;;;5076865;28;19915;-42
2022/07/11 02:57:55;;;;;;;;;;;;;;;;;;5076883;28;19919;-41
2022/07/11 03:00:20;;;;;;;;;;;;;;;;;;5076764;28;19913;-41
2022/07/11 03:02:46;;;;;;;;;;;;;;;;;;5076825;28;19913;-41
2022/07/11 03:05:12;;;;;;;;;;;;;;;;;;5076637;28;20332;-41
2022/07/11 03:07:37;;;;;;;;;;;;;;;;;;5076500;28;19912;-41
2022/07/11 03:10:02;;;;;;;;;;;;;;;;;;5076559;28;19909;-41
2022/07/11 03:12:28;;;;;;;;;;;;;;;;;;5058502;28;19908;-42
2022/07/11 03:14:53;;;;;;;;;;;;;;;;;;5058482;28;19909;-41
2022/07/11 03:17:18;;;;;;;;;;;;;;;;;;5076068;28;19925;-41
2022/07/11 03:19:43;;;;;;;;;;;;;;;;;;5076476;28;19909;-41
2022/07/11 03:22:08;;;;;;;;;;;;;;;;;;5075406;28;19915;-41
2022/07/11 03:24:33;;;;;;;;;;;;;;;;;;5076028;28;19915;-41
2022/07/11 03:26:58;;;;;;;;;;;;;;;;;;5076108;28;20015;-41
2022/07/11 03:29:24;;;;;;;;;;;;;;;;;;5076192;28;20331;-41
2022/07/11 03:31:49;;;;;;;;;;;;;;;;;;5058335;28;19952;-42
2022/07/11 03:34:14;;;;;;;;;;;;;;;;;;5076236;28;19908;-41
2022/07/11 03:36:39;;;;;;;;;;;;;;;;;;5076037;28;19909;-41
2022/07/11 03:39:04;;;;;;;;;;;;;;;;;;5076038;28;19920;-41
2022/07/11 03:41:29;;;;;;;;;;;;;;;;;;5075827;28;19995;-41
2022/07/11 03:43:56;;;;;;;;;;;;;;;;;;5075804;28;20003;-41
2022/07/11 03:46:21;;;;;;;;;;;;;;;;;;5058167;28;19920;-41
2022/07/11 03:48:46;;;;;;;;;;;;;;;;;;5075605;28;19913;-41
2022/07/11 03:51:11;;;;;;;;;;;;;;;;;;5076098;28;19908;-41
2022/07/11 03:53:36;;;;;;;;;;;;;;;;;;5075719;28;20375;-42
2022/07/11 03:56:01;;;;;;;;;;;;;;;;;;5075604;28;19962;-41
2022/07/11 03:58:27;;;;;;;;;;;;;;;;;;5075660;28;19962;-41
2022/07/11 04:00:52;;;;;;;;;;;;;;;;;;5075610;28;19909;-41
2022/07/11 04:03:17;;;;;;;;;;;;;;;;;;5075541;28;20368;-41
2022/07/11 04:05:42;;;;;;;;;;;;;;;;;;5075568;28;20271;-41
2022/07/11 04:08:07;;;;;;;;;;;;;;;;;;5075238;28;19912;-42
2022/07/11 04:10:32;;;;;;;;;;;;;;;;;;5075320;28;19932;-41
2022/07/11 04:12:57;;;;;;;;;;;;;;;;;;5075689;28;19955;-41
2022/07/11 04:15:23;;;;;;;;;;;;;;;;;;5075310;28;20320;-41
2022/07/11 04:17:48;;;;;;;;;;;;;;;;;;5056955;28;20355;-41
2022/07/11 04:20:13;;;;;;;;;;;;;;;;;;5074985;28;19944;-41
2022/07/11 04:22:38;;;;;;;;;;;;;;;;;;5075114;28;19913;-41
2022/07/11 04:25:03;;;;;;;;;;;;;;;;;;5075057;28;19909;-41
2022/07/11 04:27:29;;;;;;;;;;;;;;;;;;5075023;28;19909;-41
2022/07/11 04:29:54;;;;;;;;;;;;;;;;;;5074891;28;19915;-41
2022/07/11 04:32:20;;;;;;;;;;;;;;;;;;5074899;28;19999;-41
2022/07/11 04:34:45;;;;;;;;;;;;;;;;;;5074646;28;19940;-41
2022/07/11 04:37:10;;;;;;;;;;;;;;;;;;5075120;28;19909;-41
2022/07/11 04:39:35;;;;;;;;;;;;;;;;;;5075278;28;19909;-42
2022/07/11 04:42:03;;;;;;;;;;;;;;;;;;5074890;28;19908;-41
2022/07/11 04:44:28;;;;;;;;;;;;;;;;;;5074816;28;19927;-41
2022/07/11 04:46:53;;;;;;;;;;;;;;;;;;5074698;28;20379;-42
2022/07/11 04:49:18;;;;;;;;;;;;;;;;;;5074576;28;19912;-41
2022/07/11 04:51:43;;;;;;;;;;;;;;;;;;5074546;28;20351;-42
2022/07/11 04:54:08;;;;;;;;;;;;;;;;;;5074715;28;19908;-41
2022/07/11 04:56:34;;;;;;;;;;;;;;;;;;5074461;28;19966;-41
2022/07/11 04:58:59;;;;;;;;;;;;;;;;;;5074474;28;19913;-41
2022/07/11 05:01:24;;;;;;;;;;;;;;;;;;5074822;28;19963;-41
2022/07/11 05:03:49;;;;;;;;;;;;;;;;;;5074580;28;19909;-41
2022/07/11 05:06:14;;;;;;;;;;;;;;;;;;5074466;28;19908;-41
2022/07/11 05:08:39;;;;;;;;;;;;;;;;;;5074427;28;19965;-41
2022/07/11 05:11:04;;;;;;;;;;;;;;;;;;5074618;28;19951;-41
2022/07/11 05:13:29;;;;;;;;;;;;;;;;;;5074706;28;20022;-41
2022/07/11 05:15:54;;;;;;;;;;;;;;;;;;5074285;28;19999;-42
2022/07/11 05:18:20;;;;;;;;;;;;;;;;;;5074249;28;20007;-41
2022/07/11 05:20:45;;;;;;;;;;;;;;;;;;5074422;28;19909;-41
2022/07/11 05:23:10;;;;;;;;;;;;;;;;;;5074284;28;19916;-41
2022/07/11 05:25:35;;;;;;;;;;;;;;;;;;5073782;28;19915;-41
2022/07/11 05:28:00;;;;;;;;;;;;;;;;;;5062408;28;20023;-41
2022/07/11 05:30:25;;;;;;;;;;;;;;;;;;5070425;28;19987;-41
2022/07/11 05:32:50;;;;;;;;;;;;;;;;;;5064636;28;20011;-41
2022/07/11 05:35:15;;;;;;;;;;;;;;;;;;5059943;28;19920;-41
2022/07/11 05:37:40;;;;;;;;;;;;;;;;;;5069557;28;19922;-44
2022/07/11 05:40:06;;;;;;;;;;;;;;;;;;5074255;28;20264;-43
2022/07/11 05:42:31;;;;;;;;;;;;;;;;;;5071636;28;19912;-44
2022/07/11 05:44:56;;;;;;;;;;;;;;;;;;5072659;28;19919;-46
2022/07/11 05:47:21;;;;;;;;;;;;;;;;;;5068318;28;19921;-44
2022/07/11 05:49:46;;;;;;;;;;;;;;;;;;5073525;28;19913;-44
2022/07/11 05:52:11;;;;;;;;;;;;;;;;;;5072790;28;19916;-44
2022/07/11 05:54:36;;;;;;;;;;;;;;;;;;5073524;28;19927;-44
2022/07/11 05:57:02;;;;;;;;;;;;;;;;;;5076667;28;19936;-43
2022/07/11 05:59:27;;;;;;;;;;;;;;;;;;5075657;28;19995;-45
2022/07/11 06:01:52;;;;;;;;;;;;;;;;;;5074121;28;19963;-44
2022/07/11 06:04:17;;;;;;;;;;;;;;;;;;5080611;28;19956;-44
2022/07/11 06:06:42;;;;;;;;;;;;;;;;;;5080269;28;19920;-47
2022/07/11 06:09:07;;;;;;;;;;;;;;;;;;5067966;28;20371;-43
2022/07/11 06:11:32;;;;;;;;;;;;;;;;;;5072214;28;20264;-43
2022/07/11 06:13:57;;;;;;;;;;;;;;;;;;5070174;28;19923;-45
2022/07/11 06:16:23;;;;;;;;;;;;;;;;;;5071242;28;19920;-43
2022/07/11 06:18:48;;;;;;;;;;;;;;;;;;5052206;28;19970;-43
2022/07/11 06:21:13;;;;;;;;;;;;;;;;;;5076171;28;19942;-42
2022/07/11 06:23:38;;;;;;;;;;;;;;;;;;5064977;28;20344;-43
2022/07/11 06:26:03;;;;;;;;;;;;;;;;;;5067498;28;19952;-43
2022/07/11 06:28:28;;;;;;;;;;;;;;;;;;5067128;28;19924;-43
2022/07/11 06:30:53;;;;;;;;;;;;;;;;;;5077800;28;19965;-45
2022/07/11 06:33:18;;;;;;;;;;;;;;;;;;5064776;28;19963;-44
2022/07/11 06:35:44;;;;;;;;;;;;;;;;;;5053242;28;20383;-45
2022/07/11 06:38:09;;;;;;;;;;;;;;;;;;5067573;28;19923;-45
2022/07/11 06:40:34;;;;;;;;;;;;;;;;;;5065172;28;20398;-42
2022/07/11 06:42:59;;;;;;;;;;;;;;;;;;5061637;28;19917;-45
2022/07/11 06:45:24;;;;;;;;;;;;;;;;;;5066980;28;19924;-44
2022/07/11 06:47:49;;;;;;;;;;;;;;;;;;5063071;28;19932;-44
2022/07/11 06:50:15;;;;;;;;;;;;;;;;;;5053680;28;19921;-45
2022/07/11 06:52:40;;;;;;;;;;;;;;;;;;5050750;28;19928;-44
2022/07/11 06:55:05;;;;;;;;;;;;;;;;;;5062280;28;19967;-45
2022/07/11 06:57:30;;;;;;;;;;;;;;;;;;5030469;28;19982;-44
2022/07/11 06:59:55;;;;;;;;;;;;;;;;;;5034010;28;20386;-44
2022/07/11 07:02:23;;;;;;;;;;;;;;;;;;5042762;28;20290;-44
2022/07/11 07:04:48;;;;;;;;;;;;;;;;;;5050590;28;20007;-45
2022/07/11 07:07:14;;;;;;;;;;;;;;;;;;5054623;28;19932;-43
2022/07/11 07:09:39;;;;;;;;;;;;;;;;;;5054512;28;19924;-43
2022/07/11 07:12:04;;;;;;;;;;;;;;;;;;5048101;28;20033;-43
2022/07/11 07:14:29;;;;;;;;;;;;;;;;;;5054329;28;19927;-43
2022/07/11 07:16:54;;;;;;;;;;;;;;;;;;5044563;28;19936;-43
2022/07/11 07:19:20;;;;;;;;;;;;;;;;;;5053199;28;19921;-45
2022/07/11 07:21:46;;;;;;;;;;;;;;;;;;5044862;28;19917;-43
2022/07/11 07:24:11;;;;;;;;;;;;;;;;;;5046496;28;20402;-45
2022/07/11 07:26:36;;;;;;;;;;;;;;;;;;5051440;28;19920;-43
2022/07/11 07:29:01;;;;;;;;;;;;;;;;;;5050023;28;19929;-45
2022/07/11 07:31:26;;;;;;;;;;;;;;;;;;5043866;28;20310;-45
2022/07/11 07:33:51;;;;;;;;;;;;;;;;;;5046224;28;19917;-45
2022/07/11 07:36:16;;;;;;;;;;;;;;;;;;5041010;28;19920;-44
2022/07/11 07:38:43;;;;;;;;;;;;;;;;;;5041725;28;19923;-45
2022/07/11 07:41:08;;;;;;;;;;;;;;;;;;5038587;28;20714;-43
2022/07/11 07:43:33;;;;;;;;;;;;;;;;;;5054460;28;19927;-44
2022/07/11 07:45:58;;;;;;;;;;;;;;;;;;5016976;28;19920;-46
2022/07/11 07:48:23;;;;;;;;;;;;;;;;;;5040075;28;19931;-43
2022/07/11 07:50:48;;;;;;;;;;;;;;;;;;5045890;28;19974;-44
2022/07/11 07:53:14;;;;;;;;;;;;;;;;;;5054557;28;19974;-46
2022/07/11 07:55:39;;;;;;;;;;;;;;;;;;5049401;28;20687;-46
2022/07/11 07:58:04;;;;;;;;;;;;;;;;;;5044970;28;19916;-45
2022/07/11 08:03:13;;;;;;;;;;;;;;;;;;5047525;22;20434;-45
2022/07/11 08:05:38;;;;;;;;;;;;;;;;;;5020311;28;19921;-44
2022/07/11 08:08:03;;;;;;;;;;;;;;;;;;5040467;28;19924;-44
2022/07/11 08:10:29;;;;;;;;;;;;;;;;;;5023418;28;19921;-45
2022/07/11 08:12:54;;;;;;;;;;;;;;;;;;5015456;28;19966;-44
2022/07/11 08:15:19;;;;;;;;;;;;;;;;;;5026367;28;20482;-46
2022/07/11 08:17:44;;;;;;;;;;;;;;;;;;5025144;28;20393;-44
2022/07/11 08:20:09;;;;;;;;;;;;;;;;;;5014903;28;19913;-46
2022/07/11 08:22:34;;;;;;;;;;;;;;;;;;5011153;28;19920;-43
2022/07/11 08:24:59;;;;;;;;;;;;;;;;;;5018800;28;19957;-45
2022/07/11 08:27:24;;;;;;;;;;;;;;;;;;5001734;28;19923;-44
2022/07/11 08:29:49;;;;;;;;;;;;;;;;;;5001718;28;19932;-44
2022/07/11 08:32:14;;;;;;;;;;;;;;;;;;5006992;28;19921;-44
2022/07/11 08:34:40;;;;;;;;;;;;;;;;;;5013429;28;20367;-44
2022/07/11 08:37:05;;;;;;;;;;;;;;;;;;5011968;28;19920;-45
2022/07/11 08:39:30;;;;;;;;;;;;;;;;;;5010686;28;19921;-45
2022/07/11 08:41:55;;;;;;;;;;;;;;;;;;5015571;28;19921;-43
2022/07/11 08:44:20;;;;;;;;;;;;;;;;;;5013295;28;19921;-46
2022/07/11 08:46:46;;;;;;;;;;;;;;;;;;5011429;28;20360;-45
2022/07/11 08:49:11;;;;;;;;;;;;;;;;;;5005780;28;20329;-43
2022/07/11 08:51:36;;;;;;;;;;;;;;;;;;4999266;28;20038;-44
2022/07/11 08:54:01;;;;;;;;;;;;;;;;;;4989152;28;19924;-45
2022/07/11 08:56:26;;;;;;;;;;;;;;;;;;4989200;28;19917;-46
2022/07/11 08:58:52;;;;;;;;;;;;;;;;;;4991619;28;20065;-45
2022/07/11 09:01:17;;;;;;;;;;;;;;;;;;4992321;28;20007;-46
2022/07/11 09:03:42;;;;;;;;;;;;;;;;;;4991673;28;19929;-44
2022/07/11 09:06:07;;;;;;;;;;;;;;;;;;4999852;28;20549;-46
2022/07/11 09:08:32;;;;;;;;;;;;;;;;;;4984761;28;20584;-44
2022/07/11 09:10:58;;;;;;;;;;;;;;;;;;4974965;28;19921;-44
2022/07/11 09:13:24;;;;;;;;;;;;;;;;;;4984487;28;19921;-44
2022/07/11 09:15:49;;;;;;;;;;;;;;;;;;4991204;28;19929;-44
2022/07/11 09:18:14;;;;;;;;;;;;;;;;;;4992767;28;19921;-43
2022/07/11 09:25:19;;;;;;;;;;;;;;;;;;4998423;28;19921;-44
2022/07/11 09:26:08;;;;;;;;;;;;;;;;;;5003180;28;19959;-45
2022/07/11 09:28:33;;;;;;;;;;;;;;;;;;5005549;28;19925;-45
2022/07/11 09:30:58;;;;;;;;;;;;;;;;;;5005907;28;19939;-44
2022/07/11 09:33:23;;;;;;;;;;;;;;;;;;5007427;28;21923;-44
2022/07/11 09:35:49;;;;;;;;;;;;;;;;;;5005241;28;19966;-44
2022/07/11 09:38:16;;;;;;;;;;;;;;;;;;4995791;28;20131;-45
2022/07/11 09:40:41;;;;;;;;;;;;;;;;;;4992426;28;19966;-46
2022/07/11 09:43:06;;;;;;;;;;;;;;;;;;5007789;28;19921;-46
2022/07/11 09:45:31;;;;;;;;;;;;;;;;;;5003824;28;19921;-46
2022/07/11 09:47:57;;;;;;;;;;;;;;;;;;4998663;28;20158;-45
2022/07/11 09:50:22;;;;;;;;;;;;;;;;;;4983665;28;19979;-44
2022/07/11 09:52:47;;;;;;;;;;;;;;;;;;4998346;28;20352;-45
2022/07/11 09:55:12;;;;;;;;;;;;;;;;;;4987693;28;19927;-44
2022/07/11 09:57:37;;;;;;;;;;;;;;;;;;4993418;28;20360;-45
2022/07/11 10:00:03;;;;;;;;;;;;;;;;;;4994162;28;19943;-44
2022/07/11 10:02:28;;;;;;;;;;;;;;;;;;4995366;28;20874;-45
2022/07/11 10:04:53;;;;;;;;;;;;;;;;;;4995486;28;19921;-44
2022/07/11 10:07:19;;;;;;;;;;;;;;;;;;5001026;28;20253;-44
2022/07/11 10:09:44;;;;;;;;;;;;;;;;;;5000088;28;20006;-45
2022/07/11 10:12:09;;;;;;;;;;;;;;;;;;4990645;28;19927;-44
2022/07/11 10:14:34;;;;;;;;;;;;;;;;;;4993327;28;19921;-45
2022/07/11 10:16:59;;;;;;;;;;;;;;;;;;4989125;28;20425;-46
2022/07/11 10:19:24;;;;;;;;;;;;;;;;;;4984220;28;19991;-42
2022/07/11 10:21:52;;;;;;;;;;;;;;;;;;4990107;28;19921;-42
2022/07/11 10:24:17;;;;;;;;;;;;;;;;;;5002567;28;19924;-42
2022/07/11 10:26:42;;;;;;;;;;;;;;;;;;5020278;28;19913;-42
2022/07/11 10:29:07;;;;;;;;;;;;;;;;;;5016574;28;19975;-42
2022/07/11 10:31:33;;;;;;;;;;;;;;;;;;5008208;28;20324;-42
2022/07/11 10:33:59;;;;;;;;;;;;;;;;;;5029725;28;20367;-41
2022/07/11 10:36:24;;;;;;;;;;;;;;;;;;5024902;28;20335;-42
2022/07/11 10:38:49;;;;;;;;;;;;;;;;;;5020955;28;20070;-43
2022/07/11 10:41:14;;;;;;;;;;;;;;;;;;5025647;28;19959;-42
2022/07/11 10:43:41;;;;;;;;;;;;;;;;;;5032475;28;20027;-43
2022/07/11 10:46:06;;;;;;;;;;;;;;;;;;5035094;28;19921;-43
2022/07/11 10:48:31;;;;;;;;;;;;;;;;;;5027832;28;19928;-43
2022/07/11 10:50:57;;;;;;;;;;;;;;;;;;5025205;28;19928;-43
2022/07/11 10:53:22;;;;;;;;;;;;;;;;;;5026524;28;19913;-43
2022/07/11 10:55:47;;;;;;;;;;;;;;;;;;5022428;28;19924;-42
2022/07/11 10:58:12;;;;;;;;;;;;;;;;;;5027562;28;19917;-43
2022/07/11 11:00:37;;;;;;;;;;;;;;;;;;5025507;28;20015;-43
2022/07/11 11:03:04;;;;;;;;;;;;;;;;;;5018662;28;20436;-43
2022/07/11 11:05:29;;;;;;;;;;;;;;;;;;5017616;28;19921;-43
2022/07/11 11:07:54;;;;;;;;;;;;;;;;;;5014931;28;20378;-43
2022/07/11 11:10:19;;;;;;;;;;;;;;;;;;5020544;28;20292;-43
2022/07/11 11:12:44;;;;;;;;;;;;;;;;;;5018972;28;19940;-42
2022/07/11 11:15:09;;;;;;;;;;;;;;;;;;5015596;28;19921;-43
2022/07/11 11:17:35;;;;;;;;;;;;;;;;;;5027181;28;19913;-43
2022/07/11 11:20:01;;;;;;;;;;;;;;;;;;5014842;28;19928;-43
2022/07/11 11:22:27;;;;;;;;;;;;;;;;;;5015140;28;20398;-42
2022/07/11 11:24:52;;;;;;;;;;;;;;;;;;5020512;28;20541;-42
2022/07/11 11:27:18;;;;;;;;;;;;;;;;;;5011345;28;19921;-42
2022/07/11 11:29:44;;;;;;;;;;;;;;;;;;5019691;28;19917;-43
2022/07/11 11:32:09;;;;;;;;;;;;;;;;;;5013186;28;19967;-43
2022/07/11 11:34:34;;;;;;;;;;;;;;;;;;5010988;28;19921;-42
2022/07/11 11:36:59;;;;;;;;;;;;;;;;;;5002015;28;19921;-42
2022/07/11 11:39:24;;;;;;;;;;;;;;;;;;5019226;28;19914;-43
2022/07/11 11:41:49;;;;;;;;;;;;;;;;;;5009551;28;19975;-44
2022/07/11 11:44:14;;;;;;;;;;;;;;;;;;5015943;28;19913;-42
2022/07/11 11:46:39;;;;;;;;;;;;;;;;;;5017267;28;19922;-43
2022/07/11 11:49:05;;;;;;;;;;;;;;;;;;5022371;28;19968;-43
2022/07/11 11:51:30;;;;;;;;;;;;;;;;;;5024326;28;19960;-42
2022/07/11 11:53:55;;;;;;;;;;;;;;;;;;5020438;28;20010;-43
2022/07/11 11:56:40;;;;;;;;;;;;;;;;;;5018939;28;20011;-40
2022/07/11 11:59:05;;;;;;;;;;;;;;;;;;5003609;28;19924;-43
2022/07/11 12:01:30;;;;;;;;;;;;;;;;;;5009680;28;20288;-43
2022/07/11 12:03:55;;;;;;;;;;;;;;;;;;5009249;28;19940;-44
2022/07/11 12:06:20;;;;;;;;;;;;;;;;;;5014617;28;20403;-43
2022/07/11 12:08:45;;;;;;;;;;;;;;;;;;5025676;28;19940;-44
2022/07/11 12:11:10;;;;;;;;;;;;;;;;;;5024106;28;19944;-43
2022/07/11 12:13:35;;;;;;;;;;;;;;;;;;5012978;28;20043;-43
2022/07/11 12:18:46;;;;;;;;;;;;;;;;;;5024322;28;19994;-43
2022/07/11 12:21:11;;;;;;;;;;;;;;;;;;5018651;28;19913;-44
2022/07/11 12:23:36;;;;;;;;;;;;;;;;;;5018210;28;19949;-43
2022/07/11 12:26:01;;;;;;;;;;;;;;;;;;5013168;28;19969;-41
2022/07/11 12:28:26;;;;;;;;;;;;;;;;;;5013712;28;19933;-43
2022/07/11 12:30:51;;;;;;;;;;;;;;;;;;5020650;28;19925;-43
2022/07/11 12:33:16;;;;;;;;;;;;;;;;;;5022957;28;19913;-43
2022/07/11 12:35:41;;;;;;;;;;;;;;;;;;5026801;28;19913;-43
2022/07/11 12:38:06;;;;;;;;;;;;;;;;;;5021939;28;19913;-41
2022/07/11 12:40:32;;;;;;;;;;;;;;;;;;5023274;28;19917;-43
2022/07/11 12:42:57;;;;;;;;;;;;;;;;;;5025734;28;19921;-43
2022/07/11 12:45:22;;;;;;;;;;;;;;;;;;5028796;28;19913;-43
2022/07/11 12:47:47;;;;;;;;;;;;;;;;;;5021425;28;19936;-43
2022/07/11 12:50:15;;;;;;;;;;;;;;;;;;5021353;28;19952;-42
2022/07/11 12:52:40;;;;;;;;;;;;;;;;;;5012846;28;19916;-44
2022/07/11 12:55:07;;;;;;;;;;;;;;;;;;5003739;28;20373;-43
2022/07/11 12:57:32;;;;;;;;;;;;;;;;;;5007717;28;20344;-43
2022/07/11 12:59:57;;;;;;;;;;;;;;;;;;5012099;28;19917;-43
2022/07/11 13:02:26;;;;;;;;;;;;;;;;;;5015148;28;19913;-42
2022/07/11 13:04:51;;;;;;;;;;;;;;;;;;5010418;28;20571;-43
2022/07/11 13:10:00;;;;;;;;;;;;;;;;;;5014518;28;20284;-43
2022/07/11 13:12:25;;;;;;;;;;;;;;;;;;5010207;28;19913;-42
2022/07/11 13:15:09;;;;;;;;;;;;;;;;;;5013983;28;19914;-43
2022/07/11 13:17:34;;;;;;;;;;;;;;;;;;5017687;28;19921;-42
2022/07/11 13:19:59;;;;;;;;;;;;;;;;;;5027534;28;19994;-43
2022/07/11 13:22:24;;;;;;;;;;;;;;;;;;5027407;28;19936;-41
2022/07/11 13:24:49;;;;;;;;;;;;;;;;;;5023921;28;19929;-43
2022/07/11 13:27:14;;;;;;;;;;;;;;;;;;5026935;28;19919;-40
2022/07/11 13:29:39;;;;;;;;;;;;;;;;;;5021616;28;20356;-41
2022/07/11 13:32:04;;;;;;;;;;;;;;;;;;5032889;28;20341;-43
2022/07/11 13:34:30;;;;;;;;;;;;;;;;;;5023479;28;20506;-41
2022/07/11 13:36:55;;;;;;;;;;;;;;;;;;5020684;28;19917;-42
2022/07/11 13:39:20;;;;;;;;;;;;;;;;;;5018004;28;20019;-44
2022/07/11 13:41:45;;;;;;;;;;;;;;;;;;5021306;28;19913;-43
2022/07/11 13:44:10;;;;;;;;;;;;;;;;;;5022224;28;20368;-44
2022/07/11 13:46:35;;;;;;;;;;;;;;;;;;5035952;28;20322;-42
2022/07/11 13:49:00;;;;;;;;;;;;;;;;;;5024278;28;19921;-44
2022/07/11 13:51:26;;;;;;;;;;;;;;;;;;5019130;28;19917;-44
2022/07/11 13:53:51;;;;;;;;;;;;;;;;;;5021525;28;19921;-44
2022/07/11 13:56:16;;;;;;;;;;;;;;;;;;5030604;28;20276;-42
2022/07/11 13:58:41;;;;;;;;;;;;;;;;;;5026784;28;19952;-42
2022/07/11 14:01:06;;;;;;;;;;;;;;;;;;5020805;28;19917;-42
2022/07/11 14:03:31;;;;;;;;;;;;;;;;;;5025784;28;19929;-41
2022/07/11 14:05:56;;;;;;;;;;;;;;;;;;5025981;28;19913;-41
2022/07/11 14:08:22;;;;;;;;;;;;;;;;;;5020047;28;19925;-41
2022/07/11 14:10:47;;;;;;;;;;;;;;;;;;5031294;28;20020;-42
2022/07/11 14:13:12;;;;;;;;;;;;;;;;;;5020613;28;20402;-43
2022/07/11 14:15:37;;;;;;;;;;;;;;;;;;5020325;28;19920;-43
2022/07/11 14:18:02;;;;;;;;;;;;;;;;;;5026897;28;19921;-43
2022/07/11 14:20:27;;;;;;;;;;;;;;;;;;5033477;28;19917;-43
2022/07/11 14:22:52;;;;;;;;;;;;;;;;;;5035096;28;19920;-43
2022/07/11 14:25:17;;;;;;;;;;;;;;;;;;5033953;28;19920;-44
2022/07/11 14:27:42;;;;;;;;;;;;;;;;;;5027152;28;19913;-43
2022/07/11 14:30:07;;;;;;;;;;;;;;;;;;5030268;28;20367;-42
2022/07/11 14:32:33;;;;;;;;;;;;;;;;;;5027675;28;19913;-44
2022/07/11 14:34:58;;;;;;;;;;;;;;;;;;5035183;28;19936;-43
2022/07/11 14:37:23;;;;;;;;;;;;;;;;;;5033570;28;19913;-43
2022/07/11 14:39:48;;;;;;;;;;;;;;;;;;5034352;28;19917;-45
2022/07/11 14:42:16;;;;;;;;;;;;;;;;;;5034145;28;19919;-43
2022/07/11 14:44:42;;;;;;;;;;;;;;;;;;5035328;28;19921;-43
2022/07/11 14:47:07;;;;;;;;;;;;;;;;;;5036821;28;19913;-44
2022/07/11 14:49:32;;;;;;;;;;;;;;;;;;5035416;28;19952;-43
2022/07/11 14:51:57;;;;;;;;;;;;;;;;;;5033044;28;19952;-44
2022/07/11 14:54:22;;;;;;;;;;;;;;;;;;5071966;28;20425;-43
2022/07/11 14:56:47;;;;;;;;;;;;;;;;;;5035098;28;20075;-43
2022/07/11 14:59:12;;;;;;;;;;;;;;;;;;5034742;28;19920;-44
2022/07/11 15:01:38;;;;;;;;;;;;;;;;;;5035157;28;19924;-44
2022/07/11 15:04:03;;;;;;;;;;;;;;;;;;5035279;28;19975;-43
2022/07/11 15:14:39;;;;;;;;;;;;;;;;;;5035647;28;19963;-43
2022/07/11 15:17:04;;;;;;;;;;;;;;;;;;5036171;28;19917;-43
2022/07/11 15:19:30;;;;;;;;;;;;;;;;;;5034156;28;19910;-42
2022/07/11 15:21:55;;;;;;;;;;;;;;;;;;5031552;28;19913;-43
2022/07/11 15:24:20;;;;;;;;;;;;;;;;;;5033128;28;19916;-43
2022/07/11 15:26:45;;;;;;;;;;;;;;;;;;5031934;28;19928;-43
2022/07/11 15:29:10;;;;;;;;;;;;;;;;;;5032596;28;19931;-42
2022/07/11 15:31:35;;;;;;;;;;;;;;;;;;5032593;28;19921;-43
2022/07/11 15:34:00;;;;;;;;;;;;;;;;;;5035560;28;19931;-43
2022/07/11 15:36:25;;;;;;;;;;;;;;;;;;5033551;28;19916;-44
2022/07/11 15:38:50;;;;;;;;;;;;;;;;;;5035307;28;19921;-44
2022/07/11 15:41:16;;;;;;;;;;;;;;;;;;5035167;28;19921;-43
2022/07/11 15:43:41;;;;;;;;;;;;;;;;;;5035187;28;19909;-43
2022/07/11 15:46:06;;;;;;;;;;;;;;;;;;5035319;28;19917;-44
2022/07/11 15:48:31;;;;;;;;;;;;;;;;;;5035178;28;19931;-43
2022/07/11 15:50:56;;;;;;;;;;;;;;;;;;5035574;28;19917;-43
2022/07/11 15:53:21;;;;;;;;;;;;;;;;;;5039243;28;19962;-44
2022/07/11 15:55:46;;;;;;;;;;;;;;;;;;5034701;28;19946;-43
2022/07/11 15:58:12;;;;;;;;;;;;;;;;;;5034390;28;19916;-43
2022/07/11 16:00:37;;;;;;;;;;;;;;;;;;5035117;28;19913;-43
2022/07/11 16:03:02;;;;;;;;;;;;;;;;;;5034635;28;19913;-43
2022/07/11 16:05:27;;;;;;;;;;;;;;;;;;5034062;28;19943;-43
2022/07/11 16:07:52;;;;;;;;;;;;;;;;;;5034108;28;19913;-44
2022/07/11 16:10:17;;;;;;;;;;;;;;;;;;5034594;28;19913;-43
2022/07/11 16:12:42;;;;;;;;;;;;;;;;;;5034994;28;19909;-43
2022/07/11 16:15:07;;;;;;;;;;;;;;;;;;5035282;28;19917;-43
2022/07/11 16:17:33;;;;;;;;;;;;;;;;;;5035297;28;20283;-43
2022/07/11 16:20:00;;;;;;;;;;;;;;;;;;5034661;28;20430;-42
2022/07/11 16:22:25;;;;;;;;;;;;;;;;;;5035105;28;20356;-43
2022/07/11 16:24:50;;;;;;;;;;;;;;;;;;5035162;28;19932;-43
2022/07/11 16:27:15;;;;;;;;;;;;;;;;;;5035036;28;19916;-44
2022/07/11 16:29:40;;;;;;;;;;;;;;;;;;5034578;28;19913;-46
2022/07/11 16:32:06;;;;;;;;;;;;;;;;;;5034267;28;19913;-44
2022/07/11 16:34:31;;;;;;;;;;;;;;;;;;5034967;28;20436;-44
2022/07/11 16:36:56;;;;;;;;;;;;;;;;;;5035044;28;19932;-43
2022/07/11 16:44:48;;;;;;;;;;;;;;;;;;5034916;28;19940;-43
2022/07/11 16:47:13;;;;;;;;;;;;;;;;;;5034727;28;19909;-45
2022/07/11 16:49:39;;;;;;;;;;;;;;;;;;5034839;28;19963;-43
2022/07/11 16:52:04;;;;;;;;;;;;;;;;;;5034710;28;19956;-43
2022/07/11 16:54:29;;;;;;;;;;;;;;;;;;5034733;28;20040;-43
2022/07/11 16:56:54;;;;;;;;;;;;;;;;;;5034595;28;19910;-43